sensor_id;sensor_type;location;lat;lon;timestamp;P1;durP1;ratioP1;P2;durP2;ratioP2
54328;SDS011;40710;51.120;13.136;2023-06-04T00:00:28;4.96;;;4.95;;
54328;SDS011;40710;51.120;13.136;2023-06-04T00:02:52;5.08;;;5.06;;
54328;SDS011;40710;51.120;13.136;2023-06-04T00:05:17;5.16;;;5.16;;
54328;SDS011;40710;51.120;13.136;2023-06-04T00:07:41;5.02;;;5.02;;
54328;SDS011;40710;51.120;13.136;2023-06-04T00:10:06;4.72;;;4.72;;
54328;SDS011;40710;51.120;13.136;2023-06-04T00:12:31;5.31;;;5.31;;
54328;SDS011;40710;51.120;13.136;2023-06-04T00:14:55;5.00;;;5.00;;
54328;SDS011;40710;51.120;13.136;2023-06-04T00:17:20;4.77;;;4.74;;
54328;SDS011;40710;51.120;13.136;2023-06-04T00:19:44;5.12;;;5.03;;
54328;SDS011;40710;51.120;13.136;2023-06-04T00:22:09;5.09;;;5.06;;
54328;SDS011;40710;51.120;13.136;2023-06-04T00:24:34;5.04;;;5.02;;
54328;SDS011;40710;51.120;13.136;2023-06-04T00:26:59;5.39;;;5.37;;
54328;SDS011;40710;51.120;13.136;2023-06-04T00:29:24;5.38;;;5.36;;
54328;SDS011;40710;51.120;13.136;2023-06-04T00:31:48;4.92;;;4.85;;
54328;SDS011;40710;51.120;13.136;2023-06-04T00:34:13;5.34;;;5.26;;
54328;SDS011;40710;51.120;13.136;2023-06-04T00:36:39;5.36;;;5.34;;
54328;SDS011;40710;51.120;13.136;2023-06-04T00:39:03;5.09;;;5.08;;
54328;SDS011;40710;51.120;13.136;2023-06-04T00:41:28;5.30;;;5.30;;
54328;SDS011;40710;51.120;13.136;2023-06-04T00:43:52;5.11;;;5.11;;
54328;SDS011;40710;51.120;13.136;2023-06-04T00:46:20;5.45;;;5.45;;
54328;SDS011;40710;51.120;13.136;2023-06-04T00:48:45;5.44;;;5.41;;
54328;SDS011;40710;51.120;13.136;2023-06-04T00:51:10;5.42;;;5.37;;
54328;SDS011;40710;51.120;13.136;2023-06-04T00:53:36;5.53;;;5.52;;
54328;SDS011;40710;51.120;13.136;2023-06-04T00:56:00;5.19;;;5.18;;
54328;SDS011;40710;51.120;13.136;2023-06-04T00:58:25;5.68;;;5.68;;
54328;SDS011;40710;51.120;13.136;2023-06-04T01:00:50;5.50;;;5.50;;
54328;SDS011;40710;51.120;13.136;2023-06-04T01:03:19;5.29;;;5.29;;
54328;SDS011;40710;51.120;13.136;2023-06-04T01:05:57;5.34;;;5.34;;
54328;SDS011;40710;51.120;13.136;2023-06-04T01:08:28;5.50;;;5.47;;
54328;SDS011;40710;51.120;13.136;2023-06-04T01:10:54;5.91;;;5.77;;
54328;SDS011;40710;51.120;13.136;2023-06-04T01:13:19;6.02;;;5.90;;
54328;SDS011;40710;51.120;13.136;2023-06-04T01:15:44;5.82;;;5.82;;
54328;SDS011;40710;51.120;13.136;2023-06-04T01:18:09;5.80;;;5.80;;
54328;SDS011;40710;51.120;13.136;2023-06-04T01:20:38;6.14;;;6.13;;
54328;SDS011;40710;51.120;13.136;2023-06-04T01:25:58;5.89;;;5.89;;
54328;SDS011;40710;51.120;13.136;2023-06-04T01:28:26;6.22;;;6.22;;
54328;SDS011;40710;51.120;13.136;2023-06-04T01:30:51;6.08;;;6.06;;
54328;SDS011;40710;51.120;13.136;2023-06-04T01:33:18;6.16;;;6.16;;
54328;SDS011;40710;51.120;13.136;2023-06-04T01:35:43;5.79;;;5.79;;
54328;SDS011;40710;51.120;13.136;2023-06-04T01:38:08;6.39;;;6.39;;
54328;SDS011;40710;51.120;13.136;2023-06-04T01:40:34;6.05;;;6.05;;
54328;SDS011;40710;51.120;13.136;2023-06-04T01:42:59;5.98;;;5.98;;
54328;SDS011;40710;51.120;13.136;2023-06-04T01:45:26;5.98;;;5.98;;
54328;SDS011;40710;51.120;13.136;2023-06-04T01:47:52;5.91;;;5.91;;
54328;SDS011;40710;51.120;13.136;2023-06-04T01:50:16;5.85;;;5.85;;
54328;SDS011;40710;51.120;13.136;2023-06-04T01:52:41;5.71;;;5.64;;
54328;SDS011;40710;51.120;13.136;2023-06-04T01:55:06;5.68;;;5.65;;
54328;SDS011;40710;51.120;13.136;2023-06-04T01:57:33;6.19;;;6.19;;
54328;SDS011;40710;51.120;13.136;2023-06-04T02:00:00;6.20;;;6.19;;
54328;SDS011;40710;51.120;13.136;2023-06-04T02:02:25;6.13;;;6.12;;
54328;SDS011;40710;51.120;13.136;2023-06-04T02:04:50;6.33;;;6.33;;
54328;SDS011;40710;51.120;13.136;2023-06-04T02:07:15;5.79;;;5.75;;
54328;SDS011;40710;51.120;13.136;2023-06-04T02:09:44;5.37;;;5.37;;
54328;SDS011;40710;51.120;13.136;2023-06-04T02:12:09;5.92;;;5.82;;
54328;SDS011;40710;51.120;13.136;2023-06-04T02:14:33;5.96;;;5.89;;
54328;SDS011;40710;51.120;13.136;2023-06-04T02:16:58;5.92;;;5.92;;
54328;SDS011;40710;51.120;13.136;2023-06-04T02:19:23;6.03;;;6.03;;
54328;SDS011;40710;51.120;13.136;2023-06-04T02:21:50;6.10;;;6.10;;
54328;SDS011;40710;51.120;13.136;2023-06-04T02:24:14;5.67;;;5.67;;
54328;SDS011;40710;51.120;13.136;2023-06-04T02:26:40;5.68;;;5.68;;
54328;SDS011;40710;51.120;13.136;2023-06-04T02:29:05;6.31;;;6.31;;
54328;SDS011;40710;51.120;13.136;2023-06-04T02:31:30;6.11;;;6.11;;
54328;SDS011;40710;51.120;13.136;2023-06-04T02:33:55;6.14;;;6.14;;
54328;SDS011;40710;51.120;13.136;2023-06-04T02:36:19;5.99;;;5.99;;
54328;SDS011;40710;51.120;13.136;2023-06-04T02:38:44;5.98;;;5.96;;
54328;SDS011;40710;51.120;13.136;2023-06-04T02:41:09;5.88;;;5.88;;
54328;SDS011;40710;51.120;13.136;2023-06-04T02:43:34;20.74;;;20.29;;
54328;SDS011;40710;51.120;13.136;2023-06-04T02:45:59;32.44;;;31.16;;
54328;SDS011;40710;51.120;13.136;2023-06-04T02:48:23;12.01;;;11.65;;
54328;SDS011;40710;51.120;13.136;2023-06-04T02:50:48;6.85;;;6.78;;
54328;SDS011;40710;51.120;13.136;2023-06-04T02:53:12;6.42;;;6.34;;
54328;SDS011;40710;51.120;13.136;2023-06-04T02:55:37;6.31;;;6.22;;
54328;SDS011;40710;51.120;13.136;2023-06-04T02:58:01;6.30;;;6.27;;
54328;SDS011;40710;51.120;13.136;2023-06-04T03:00:26;6.25;;;6.20;;
54328;SDS011;40710;51.120;13.136;2023-06-04T03:02:51;6.23;;;6.19;;
54328;SDS011;40710;51.120;13.136;2023-06-04T03:05:16;6.19;;;6.12;;
54328;SDS011;40710;51.120;13.136;2023-06-04T03:07:42;6.33;;;6.29;;
54328;SDS011;40710;51.120;13.136;2023-06-04T03:10:12;6.30;;;6.26;;
54328;SDS011;40710;51.120;13.136;2023-06-04T03:12:39;6.25;;;6.24;;
54328;SDS011;40710;51.120;13.136;2023-06-04T03:15:04;6.30;;;6.28;;
54328;SDS011;40710;51.120;13.136;2023-06-04T03:17:29;6.31;;;6.31;;
54328;SDS011;40710;51.120;13.136;2023-06-04T03:19:55;6.48;;;6.43;;
54328;SDS011;40710;51.120;13.136;2023-06-04T03:22:20;6.38;;;6.31;;
54328;SDS011;40710;51.120;13.136;2023-06-04T03:24:44;6.49;;;6.48;;
54328;SDS011;40710;51.120;13.136;2023-06-04T03:27:09;6.45;;;6.45;;
54328;SDS011;40710;51.120;13.136;2023-06-04T03:29:34;6.11;;;6.11;;
54328;SDS011;40710;51.120;13.136;2023-06-04T03:32:00;6.18;;;6.18;;
54328;SDS011;40710;51.120;13.136;2023-06-04T03:34:25;5.91;;;5.87;;
54328;SDS011;40710;51.120;13.136;2023-06-04T03:36:51;6.22;;;6.21;;
54328;SDS011;40710;51.120;13.136;2023-06-04T03:39:16;6.05;;;6.05;;
54328;SDS011;40710;51.120;13.136;2023-06-04T03:41:41;6.16;;;6.11;;
54328;SDS011;40710;51.120;13.136;2023-06-04T03:44:05;6.34;;;6.30;;
54328;SDS011;40710;51.120;13.136;2023-06-04T03:46:30;6.23;;;6.10;;
54328;SDS011;40710;51.120;13.136;2023-06-04T03:48:57;6.16;;;6.08;;
54328;SDS011;40710;51.120;13.136;2023-06-04T03:51:22;6.15;;;6.14;;
54328;SDS011;40710;51.120;13.136;2023-06-04T03:53:46;6.18;;;6.17;;
54328;SDS011;40710;51.120;13.136;2023-06-04T03:56:11;6.23;;;6.18;;
54328;SDS011;40710;51.120;13.136;2023-06-04T03:58:35;6.60;;;6.55;;
54328;SDS011;40710;51.120;13.136;2023-06-04T04:01:00;6.57;;;6.49;;
54328;SDS011;40710;51.120;13.136;2023-06-04T04:03:25;6.24;;;6.22;;
54328;SDS011;40710;51.120;13.136;2023-06-04T04:05:55;6.21;;;6.21;;
54328;SDS011;40710;51.120;13.136;2023-06-04T04:08:20;6.31;;;6.31;;
54328;SDS011;40710;51.120;13.136;2023-06-04T04:10:45;6.37;;;6.34;;
54328;SDS011;40710;51.120;13.136;2023-06-04T04:13:09;6.04;;;5.98;;
54328;SDS011;40710;51.120;13.136;2023-06-04T04:15:34;6.34;;;6.33;;
54328;SDS011;40710;51.120;13.136;2023-06-04T04:17:58;6.27;;;6.27;;
54328;SDS011;40710;51.120;13.136;2023-06-04T04:20:24;6.37;;;6.36;;
54328;SDS011;40710;51.120;13.136;2023-06-04T04:22:49;7.43;;;7.38;;
54328;SDS011;40710;51.120;13.136;2023-06-04T04:25:14;7.41;;;7.28;;
54328;SDS011;40710;51.120;13.136;2023-06-04T04:27:38;7.07;;;6.97;;
54328;SDS011;40710;51.120;13.136;2023-06-04T04:30:05;7.87;;;7.77;;
54328;SDS011;40710;51.120;13.136;2023-06-04T04:32:30;6.81;;;6.80;;
54328;SDS011;40710;51.120;13.136;2023-06-04T04:34:56;6.64;;;6.64;;
54328;SDS011;40710;51.120;13.136;2023-06-04T04:37:21;6.26;;;6.16;;
54328;SDS011;40710;51.120;13.136;2023-06-04T04:39:46;6.69;;;6.63;;
54328;SDS011;40710;51.120;13.136;2023-06-04T04:42:10;6.73;;;6.66;;
54328;SDS011;40710;51.120;13.136;2023-06-04T04:44:35;6.58;;;6.52;;
54328;SDS011;40710;51.120;13.136;2023-06-04T04:46:59;7.25;;;7.19;;
54328;SDS011;40710;51.120;13.136;2023-06-04T04:49:24;6.58;;;6.44;;
54328;SDS011;40710;51.120;13.136;2023-06-04T04:51:48;6.18;;;6.06;;
54328;SDS011;40710;51.120;13.136;2023-06-04T04:54:13;6.18;;;6.14;;
54328;SDS011;40710;51.120;13.136;2023-06-04T04:56:38;6.19;;;6.16;;
54328;SDS011;40710;51.120;13.136;2023-06-04T04:59:02;6.11;;;6.03;;
54328;SDS011;40710;51.120;13.136;2023-06-04T05:01:27;6.11;;;6.05;;
54328;SDS011;40710;51.120;13.136;2023-06-04T05:03:51;6.05;;;6.02;;
54328;SDS011;40710;51.120;13.136;2023-06-04T05:06:16;6.01;;;5.95;;
54328;SDS011;40710;51.120;13.136;2023-06-04T05:08:40;5.96;;;5.89;;
54328;SDS011;40710;51.120;13.136;2023-06-04T05:11:06;5.93;;;5.84;;
54328;SDS011;40710;51.120;13.136;2023-06-04T05:13:31;5.75;;;5.70;;
54328;SDS011;40710;51.120;13.136;2023-06-04T05:15:55;5.42;;;5.42;;
54328;SDS011;40710;51.120;13.136;2023-06-04T05:18:20;5.46;;;5.43;;
54328;SDS011;40710;51.120;13.136;2023-06-04T05:20:46;5.49;;;5.35;;
54328;SDS011;40710;51.120;13.136;2023-06-04T05:23:11;5.31;;;5.23;;
54328;SDS011;40710;51.120;13.136;2023-06-04T05:25:36;5.09;;;5.04;;
54328;SDS011;40710;51.120;13.136;2023-06-04T05:28:01;5.13;;;5.06;;
54328;SDS011;40710;51.120;13.136;2023-06-04T05:30:25;5.23;;;5.12;;
54328;SDS011;40710;51.120;13.136;2023-06-04T05:32:50;7.02;;;6.90;;
54328;SDS011;40710;51.120;13.136;2023-06-04T05:35:14;6.56;;;6.48;;
54328;SDS011;40710;51.120;13.136;2023-06-04T05:37:39;5.33;;;5.27;;
54328;SDS011;40710;51.120;13.136;2023-06-04T05:40:06;5.47;;;5.43;;
54328;SDS011;40710;51.120;13.136;2023-06-04T05:42:31;5.15;;;5.12;;
54328;SDS011;40710;51.120;13.136;2023-06-04T05:44:55;5.46;;;5.40;;
54328;SDS011;40710;51.120;13.136;2023-06-04T05:47:20;6.57;;;6.43;;
54328;SDS011;40710;51.120;13.136;2023-06-04T05:49:45;5.51;;;5.38;;
54328;SDS011;40710;51.120;13.136;2023-06-04T05:52:09;5.19;;;5.13;;
54328;SDS011;40710;51.120;13.136;2023-06-04T05:54:34;4.70;;;4.70;;
54328;SDS011;40710;51.120;13.136;2023-06-04T05:56:58;4.68;;;4.68;;
54328;SDS011;40710;51.120;13.136;2023-06-04T05:59:23;4.62;;;4.62;;
54328;SDS011;40710;51.120;13.136;2023-06-04T06:01:48;4.71;;;4.69;;
54328;SDS011;40710;51.120;13.136;2023-06-04T06:04:14;5.16;;;5.14;;
54328;SDS011;40710;51.120;13.136;2023-06-04T06:06:39;6.17;;;6.12;;
54328;SDS011;40710;51.120;13.136;2023-06-04T06:09:08;7.11;;;7.08;;
54328;SDS011;40710;51.120;13.136;2023-06-04T06:11:33;5.69;;;5.57;;
54328;SDS011;40710;51.120;13.136;2023-06-04T06:13:57;5.45;;;5.43;;
54328;SDS011;40710;51.120;13.136;2023-06-04T06:16:22;5.32;;;5.32;;
54328;SDS011;40710;51.120;13.136;2023-06-04T06:18:47;5.17;;;5.17;;
54328;SDS011;40710;51.120;13.136;2023-06-04T06:21:11;4.83;;;4.83;;
54328;SDS011;40710;51.120;13.136;2023-06-04T06:23:36;4.89;;;4.89;;
54328;SDS011;40710;51.120;13.136;2023-06-04T06:26:01;4.87;;;4.87;;
54328;SDS011;40710;51.120;13.136;2023-06-04T06:28:26;5.36;;;5.36;;
54328;SDS011;40710;51.120;13.136;2023-06-04T06:30:50;5.15;;;5.15;;
54328;SDS011;40710;51.120;13.136;2023-06-04T06:33:15;5.49;;;5.49;;
54328;SDS011;40710;51.120;13.136;2023-06-04T06:35:40;5.62;;;5.59;;
54328;SDS011;40710;51.120;13.136;2023-06-04T06:38:04;6.61;;;6.60;;
54328;SDS011;40710;51.120;13.136;2023-06-04T06:40:29;23.40;;;22.73;;
54328;SDS011;40710;51.120;13.136;2023-06-04T06:42:54;12.01;;;11.62;;
54328;SDS011;40710;51.120;13.136;2023-06-04T06:45:19;6.13;;;5.96;;
54328;SDS011;40710;51.120;13.136;2023-06-04T06:47:44;4.61;;;4.53;;
54328;SDS011;40710;51.120;13.136;2023-06-04T06:50:08;3.88;;;3.87;;
54328;SDS011;40710;51.120;13.136;2023-06-04T06:52:33;3.64;;;3.64;;
54328;SDS011;40710;51.120;13.136;2023-06-04T06:54:57;3.70;;;3.70;;
54328;SDS011;40710;51.120;13.136;2023-06-04T06:57:22;3.47;;;3.44;;
54328;SDS011;40710;51.120;13.136;2023-06-04T06:59:46;3.66;;;3.58;;
54328;SDS011;40710;51.120;13.136;2023-06-04T07:02:11;3.50;;;3.44;;
54328;SDS011;40710;51.120;13.136;2023-06-04T07:04:36;3.25;;;3.22;;
54328;SDS011;40710;51.120;13.136;2023-06-04T07:07:00;3.08;;;3.07;;
54328;SDS011;40710;51.120;13.136;2023-06-04T07:09:25;2.85;;;2.85;;
54328;SDS011;40710;51.120;13.136;2023-06-04T07:11:50;2.51;;;2.51;;
54328;SDS011;40710;51.120;13.136;2023-06-04T07:14:15;2.53;;;2.52;;
54328;SDS011;40710;51.120;13.136;2023-06-04T07:16:39;2.50;;;2.49;;
54328;SDS011;40710;51.120;13.136;2023-06-04T07:19:04;2.34;;;2.34;;
54328;SDS011;40710;51.120;13.136;2023-06-04T07:21:28;2.32;;;2.32;;
54328;SDS011;40710;51.120;13.136;2023-06-04T07:23:53;2.32;;;2.32;;
54328;SDS011;40710;51.120;13.136;2023-06-04T07:26:17;2.15;;;2.13;;
54328;SDS011;40710;51.120;13.136;2023-06-04T07:28:42;2.29;;;2.27;;
54328;SDS011;40710;51.120;13.136;2023-06-04T07:31:06;2.59;;;2.58;;
54328;SDS011;40710;51.120;13.136;2023-06-04T07:33:31;2.45;;;2.45;;
54328;SDS011;40710;51.120;13.136;2023-06-04T07:35:56;2.26;;;2.26;;
54328;SDS011;40710;51.120;13.136;2023-06-04T07:38:20;2.27;;;2.27;;
54328;SDS011;40710;51.120;13.136;2023-06-04T07:40:45;1.94;;;1.94;;
54328;SDS011;40710;51.120;13.136;2023-06-04T07:43:11;2.15;;;2.15;;
54328;SDS011;40710;51.120;13.136;2023-06-04T07:45:36;2.24;;;2.24;;
54328;SDS011;40710;51.120;13.136;2023-06-04T07:48:00;2.13;;;2.13;;
54328;SDS011;40710;51.120;13.136;2023-06-04T07:50:25;2.16;;;2.16;;
54328;SDS011;40710;51.120;13.136;2023-06-04T07:52:50;2.87;;;2.87;;
54328;SDS011;40710;51.120;13.136;2023-06-04T07:55:14;2.24;;;2.24;;
54328;SDS011;40710;51.120;13.136;2023-06-04T07:57:39;2.20;;;2.19;;
54328;SDS011;40710;51.120;13.136;2023-06-04T08:00:03;2.02;;;2.01;;
54328;SDS011;40710;51.120;13.136;2023-06-04T08:02:28;1.91;;;1.90;;
54328;SDS011;40710;51.120;13.136;2023-06-04T08:04:53;1.95;;;1.93;;
54328;SDS011;40710;51.120;13.136;2023-06-04T08:07:18;1.91;;;1.91;;
54328;SDS011;40710;51.120;13.136;2023-06-04T08:09:42;2.45;;;2.45;;
54328;SDS011;40710;51.120;13.136;2023-06-04T08:12:08;2.32;;;2.31;;
54328;SDS011;40710;51.120;13.136;2023-06-04T08:14:32;2.31;;;2.29;;
54328;SDS011;40710;51.120;13.136;2023-06-04T08:16:57;2.02;;;2.00;;
54328;SDS011;40710;51.120;13.136;2023-06-04T08:19:22;2.14;;;2.13;;
54328;SDS011;40710;51.120;13.136;2023-06-04T08:21:47;1.90;;;1.90;;
54328;SDS011;40710;51.120;13.136;2023-06-04T08:24:12;1.81;;;1.81;;
54328;SDS011;40710;51.120;13.136;2023-06-04T08:26:37;1.93;;;1.93;;
54328;SDS011;40710;51.120;13.136;2023-06-04T08:29:02;2.05;;;2.05;;
54328;SDS011;40710;51.120;13.136;2023-06-04T08:31:31;2.46;;;2.45;;
54328;SDS011;40710;51.120;13.136;2023-06-04T08:33:56;2.13;;;2.11;;
54328;SDS011;40710;51.120;13.136;2023-06-04T08:36:20;1.94;;;1.93;;
54328;SDS011;40710;51.120;13.136;2023-06-04T08:38:46;1.77;;;1.76;;
54328;SDS011;40710;51.120;13.136;2023-06-04T08:43:42;1.87;;;1.86;;
54328;SDS011;40710;51.120;13.136;2023-06-04T08:46:09;1.97;;;1.95;;
54328;SDS011;40710;51.120;13.136;2023-06-04T08:48:36;1.86;;;1.85;;
54328;SDS011;40710;51.120;13.136;2023-06-04T08:51:02;1.96;;;1.95;;
54328;SDS011;40710;51.120;13.136;2023-06-04T08:53:30;1.98;;;1.98;;
54328;SDS011;40710;51.120;13.136;2023-06-04T08:55:54;1.68;;;1.67;;
54328;SDS011;40710;51.120;13.136;2023-06-04T08:58:20;1.97;;;1.96;;
54328;SDS011;40710;51.120;13.136;2023-06-04T09:00:47;1.72;;;1.72;;
54328;SDS011;40710;51.120;13.136;2023-06-04T09:03:12;1.89;;;1.89;;
54328;SDS011;40710;51.120;13.136;2023-06-04T09:05:41;5.39;;;5.35;;
54328;SDS011;40710;51.120;13.136;2023-06-04T09:08:12;1.83;;;1.81;;
54328;SDS011;40710;51.120;13.136;2023-06-04T09:10:37;1.78;;;1.78;;
54328;SDS011;40710;51.120;13.136;2023-06-04T09:13:03;2.09;;;2.08;;
54328;SDS011;40710;51.120;13.136;2023-06-04T09:15:32;2.08;;;2.07;;
54328;SDS011;40710;51.120;13.136;2023-06-04T09:17:56;2.07;;;2.07;;
54328;SDS011;40710;51.120;13.136;2023-06-04T09:20:21;1.83;;;1.82;;
54328;SDS011;40710;51.120;13.136;2023-06-04T09:22:47;1.98;;;1.98;;
54328;SDS011;40710;51.120;13.136;2023-06-04T09:25:18;2.07;;;2.07;;
54328;SDS011;40710;51.120;13.136;2023-06-04T09:27:44;2.12;;;2.12;;
54328;SDS011;40710;51.120;13.136;2023-06-04T09:30:09;2.18;;;2.17;;
54328;SDS011;40710;51.120;13.136;2023-06-04T09:32:34;2.24;;;2.24;;
54328;SDS011;40710;51.120;13.136;2023-06-04T09:35:15;1.81;;;1.81;;
54328;SDS011;40710;51.120;13.136;2023-06-04T09:37:42;2.05;;;2.05;;
54328;SDS011;40710;51.120;13.136;2023-06-04T09:40:16;6.10;;;6.05;;
54328;SDS011;40710;51.120;13.136;2023-06-04T09:42:44;7.92;;;7.88;;
54328;SDS011;40710;51.120;13.136;2023-06-04T09:45:10;1.93;;;1.93;;
54328;SDS011;40710;51.120;13.136;2023-06-04T09:47:42;1.97;;;1.96;;
54328;SDS011;40710;51.120;13.136;2023-06-04T09:50:07;2.92;;;2.86;;
54328;SDS011;40710;51.120;13.136;2023-06-04T09:52:32;1.77;;;1.74;;
54328;SDS011;40710;51.120;13.136;2023-06-04T09:54:58;1.79;;;1.78;;
54328;SDS011;40710;51.120;13.136;2023-06-04T09:57:22;1.61;;;1.61;;
54328;SDS011;40710;51.120;13.136;2023-06-04T09:59:49;1.76;;;1.76;;
54328;SDS011;40710;51.120;13.136;2023-06-04T10:02:16;1.73;;;1.73;;
54328;SDS011;40710;51.120;13.136;2023-06-04T10:04:44;1.66;;;1.66;;
54328;SDS011;40710;51.120;13.136;2023-06-04T10:07:17;1.73;;;1.73;;
54328;SDS011;40710;51.120;13.136;2023-06-04T10:09:43;1.52;;;1.52;;
54328;SDS011;40710;51.120;13.136;2023-06-04T10:12:14;2.04;;;2.04;;
54328;SDS011;40710;51.120;13.136;2023-06-04T10:14:45;1.88;;;1.87;;
54328;SDS011;40710;51.120;13.136;2023-06-04T10:17:16;4.21;;;4.18;;
54328;SDS011;40710;51.120;13.136;2023-06-04T10:19:45;9.87;;;9.70;;
54328;SDS011;40710;51.120;13.136;2023-06-04T10:22:13;3.58;;;3.53;;
54328;SDS011;40710;51.120;13.136;2023-06-04T10:24:38;2.20;;;2.19;;
54328;SDS011;40710;51.120;13.136;2023-06-04T10:27:02;1.74;;;1.74;;
54328;SDS011;40710;51.120;13.136;2023-06-04T10:29:34;1.84;;;1.82;;
54328;SDS011;40710;51.120;13.136;2023-06-04T10:31:59;1.74;;;1.72;;
54328;SDS011;40710;51.120;13.136;2023-06-04T10:34:24;1.84;;;1.84;;
54328;SDS011;40710;51.120;13.136;2023-06-04T10:36:50;1.69;;;1.69;;
54328;SDS011;40710;51.120;13.136;2023-06-04T10:39:24;1.99;;;1.99;;
54328;SDS011;40710;51.120;13.136;2023-06-04T10:41:57;1.82;;;1.82;;
54328;SDS011;40710;51.120;13.136;2023-06-04T10:44:29;1.79;;;1.79;;
54328;SDS011;40710;51.120;13.136;2023-06-04T10:46:55;1.74;;;1.74;;
54328;SDS011;40710;51.120;13.136;2023-06-04T10:49:27;1.74;;;1.74;;
54328;SDS011;40710;51.120;13.136;2023-06-04T10:51:53;1.77;;;1.77;;
54328;SDS011;40710;51.120;13.136;2023-06-04T10:54:27;1.70;;;1.70;;
54328;SDS011;40710;51.120;13.136;2023-06-04T10:56:52;1.45;;;1.45;;
54328;SDS011;40710;51.120;13.136;2023-06-04T10:59:19;1.71;;;1.71;;
54328;SDS011;40710;51.120;13.136;2023-06-04T11:01:45;1.76;;;1.76;;
54328;SDS011;40710;51.120;13.136;2023-06-04T11:04:22;1.83;;;1.83;;
54328;SDS011;40710;51.120;13.136;2023-06-04T11:07:01;1.96;;;1.96;;
54328;SDS011;40710;51.120;13.136;2023-06-04T11:09:33;1.68;;;1.68;;
54328;SDS011;40710;51.120;13.136;2023-06-04T11:11:59;1.64;;;1.64;;
54328;SDS011;40710;51.120;13.136;2023-06-04T11:14:24;2.08;;;2.08;;
54328;SDS011;40710;51.120;13.136;2023-06-04T11:16:49;2.08;;;2.08;;
54328;SDS011;40710;51.120;13.136;2023-06-04T11:19:14;2.48;;;2.48;;
54328;SDS011;40710;51.120;13.136;2023-06-04T11:21:38;2.14;;;2.13;;
54328;SDS011;40710;51.120;13.136;2023-06-04T11:24:03;1.82;;;1.82;;
54328;SDS011;40710;51.120;13.136;2023-06-04T11:26:35;1.95;;;1.95;;
54328;SDS011;40710;51.120;13.136;2023-06-04T11:29:00;1.86;;;1.85;;
54328;SDS011;40710;51.120;13.136;2023-06-04T11:31:39;1.96;;;1.96;;
54328;SDS011;40710;51.120;13.136;2023-06-04T11:34:07;1.60;;;1.59;;
54328;SDS011;40710;51.120;13.136;2023-06-04T11:36:31;1.57;;;1.57;;
54328;SDS011;40710;51.120;13.136;2023-06-04T11:39:00;1.82;;;1.81;;
54328;SDS011;40710;51.120;13.136;2023-06-04T11:41:27;1.84;;;1.83;;
54328;SDS011;40710;51.120;13.136;2023-06-04T11:43:54;1.73;;;1.73;;
54328;SDS011;40710;51.120;13.136;2023-06-04T11:46:19;1.77;;;1.77;;
54328;SDS011;40710;51.120;13.136;2023-06-04T11:48:44;1.71;;;1.71;;
54328;SDS011;40710;51.120;13.136;2023-06-04T11:51:09;1.90;;;1.89;;
54328;SDS011;40710;51.120;13.136;2023-06-04T11:53:36;1.62;;;1.62;;
54328;SDS011;40710;51.120;13.136;2023-06-04T11:56:01;1.68;;;1.68;;
54328;SDS011;40710;51.120;13.136;2023-06-04T11:58:26;1.75;;;1.75;;
54328;SDS011;40710;51.120;13.136;2023-06-04T12:00:51;1.89;;;1.89;;
54328;SDS011;40710;51.120;13.136;2023-06-04T12:03:16;1.58;;;1.58;;
54328;SDS011;40710;51.120;13.136;2023-06-04T12:05:40;1.99;;;1.99;;
54328;SDS011;40710;51.120;13.136;2023-06-04T12:08:05;8.44;;;8.44;;
54328;SDS011;40710;51.120;13.136;2023-06-04T12:10:36;29.55;;;29.48;;
54328;SDS011;40710;51.120;13.136;2023-06-04T12:13:06;8.03;;;8.02;;
54328;SDS011;40710;51.120;13.136;2023-06-04T12:15:31;2.85;;;2.84;;
54328;SDS011;40710;51.120;13.136;2023-06-04T12:17:56;1.79;;;1.78;;
54328;SDS011;40710;51.120;13.136;2023-06-04T12:20:39;1.87;;;1.86;;
54328;SDS011;40710;51.120;13.136;2023-06-04T12:23:06;2.05;;;2.04;;
54328;SDS011;40710;51.120;13.136;2023-06-04T12:25:31;1.57;;;1.57;;
54328;SDS011;40710;51.120;13.136;2023-06-04T12:27:57;1.46;;;1.46;;
54328;SDS011;40710;51.120;13.136;2023-06-04T12:30:22;1.56;;;1.56;;
54328;SDS011;40710;51.120;13.136;2023-06-04T12:32:47;1.62;;;1.62;;
54328;SDS011;40710;51.120;13.136;2023-06-04T12:35:12;1.62;;;1.62;;
54328;SDS011;40710;51.120;13.136;2023-06-04T12:37:39;1.61;;;1.61;;
54328;SDS011;40710;51.120;13.136;2023-06-04T12:40:04;1.64;;;1.64;;
54328;SDS011;40710;51.120;13.136;2023-06-04T12:42:30;1.52;;;1.52;;
54328;SDS011;40710;51.120;13.136;2023-06-04T12:44:55;1.63;;;1.63;;
54328;SDS011;40710;51.120;13.136;2023-06-04T12:47:20;1.83;;;1.83;;
54328;SDS011;40710;51.120;13.136;2023-06-04T12:49:45;1.92;;;1.92;;
54328;SDS011;40710;51.120;13.136;2023-06-04T12:52:10;1.62;;;1.62;;
54328;SDS011;40710;51.120;13.136;2023-06-04T12:54:35;1.57;;;1.57;;
54328;SDS011;40710;51.120;13.136;2023-06-04T12:57:00;1.82;;;1.82;;
54328;SDS011;40710;51.120;13.136;2023-06-04T12:59:25;1.52;;;1.52;;
54328;SDS011;40710;51.120;13.136;2023-06-04T13:01:51;1.46;;;1.46;;
54328;SDS011;40710;51.120;13.136;2023-06-04T13:04:15;1.61;;;1.60;;
54328;SDS011;40710;51.120;13.136;2023-06-04T13:06:40;3.96;;;3.95;;
54328;SDS011;40710;51.120;13.136;2023-06-04T13:09:05;7.18;;;7.18;;
54328;SDS011;40710;51.120;13.136;2023-06-04T13:11:38;5.99;;;5.99;;
54328;SDS011;40710;51.120;13.136;2023-06-04T13:14:04;2.18;;;2.18;;
54328;SDS011;40710;51.120;13.136;2023-06-04T13:16:28;1.72;;;1.72;;
54328;SDS011;40710;51.120;13.136;2023-06-04T13:18:53;2.02;;;2.02;;
54328;SDS011;40710;51.120;13.136;2023-06-04T13:21:17;1.69;;;1.68;;
54328;SDS011;40710;51.120;13.136;2023-06-04T13:23:42;1.61;;;1.61;;
54328;SDS011;40710;51.120;13.136;2023-06-04T13:26:07;1.57;;;1.57;;
54328;SDS011;40710;51.120;13.136;2023-06-04T13:28:32;1.55;;;1.55;;
54328;SDS011;40710;51.120;13.136;2023-06-04T13:30:56;1.95;;;1.95;;
54328;SDS011;40710;51.120;13.136;2023-06-04T13:33:21;1.69;;;1.68;;
54328;SDS011;40710;51.120;13.136;2023-06-04T13:35:45;1.57;;;1.56;;
54328;SDS011;40710;51.120;13.136;2023-06-04T13:38:10;1.58;;;1.57;;
54328;SDS011;40710;51.120;13.136;2023-06-04T13:40:36;2.03;;;2.01;;
54328;SDS011;40710;51.120;13.136;2023-06-04T13:43:01;4.50;;;4.50;;
54328;SDS011;40710;51.120;13.136;2023-06-04T13:45:26;11.84;;;11.84;;
54328;SDS011;40710;51.120;13.136;2023-06-04T13:47:50;4.76;;;4.76;;
54328;SDS011;40710;51.120;13.136;2023-06-04T13:50:15;1.95;;;1.95;;
54328;SDS011;40710;51.120;13.136;2023-06-04T13:52:40;1.98;;;1.98;;
54328;SDS011;40710;51.120;13.136;2023-06-04T13:55:04;1.61;;;1.61;;
54328;SDS011;40710;51.120;13.136;2023-06-04T13:57:29;1.78;;;1.78;;
54328;SDS011;40710;51.120;13.136;2023-06-04T13:59:54;1.75;;;1.75;;
54328;SDS011;40710;51.120;13.136;2023-06-04T14:02:19;1.75;;;1.75;;
54328;SDS011;40710;51.120;13.136;2023-06-04T14:04:44;1.53;;;1.53;;
54328;SDS011;40710;51.120;13.136;2023-06-04T14:07:08;1.63;;;1.63;;
54328;SDS011;40710;51.120;13.136;2023-06-04T14:09:33;1.83;;;1.83;;
54328;SDS011;40710;51.120;13.136;2023-06-04T14:11:58;1.66;;;1.66;;
54328;SDS011;40710;51.120;13.136;2023-06-04T14:14:23;1.65;;;1.65;;
54328;SDS011;40710;51.120;13.136;2023-06-04T14:16:47;1.90;;;1.88;;
54328;SDS011;40710;51.120;13.136;2023-06-04T14:19:12;1.79;;;1.78;;
54328;SDS011;40710;51.120;13.136;2023-06-04T14:21:37;1.42;;;1.42;;
54328;SDS011;40710;51.120;13.136;2023-06-04T14:24:02;1.74;;;1.74;;
54328;SDS011;40710;51.120;13.136;2023-06-04T14:26:26;1.80;;;1.78;;
54328;SDS011;40710;51.120;13.136;2023-06-04T14:28:51;1.85;;;1.84;;